Time;durP1;ratioP1;P1;durP2;ratioP2;P2;SDS_P1;SDS_P2;PMS_P1;PMS_P2;Temp;Humidity;BMP_temperature;BMP_pressure;BME280_temperature;BME280_humidity;BME280_pressure;Samples;Min_cycle;Max_cycle;Signal;HPM_P1;HPM_P2
2022/06/25 00:00:46;;;;;;;3.70;3.40;;;15.80;99.90;;;;;;4980646;28;20231;-66
2022/06/25 00:03:12;;;;;;;3.17;2.97;;;15.90;99.90;;;;;;4973518;28;20262;-65
2022/06/25 00:05:37;;;;;;;5.43;3.23;;;15.70;99.90;;;;;;4979818;28;20642;-66
2022/06/25 00:08:03;;;;;;;3.27;3.07;;;15.70;99.90;;;;;;4976078;28;20180;-66
2022/06/25 00:10:28;;;;;;;3.60;3.40;;;15.70;99.90;;;;;;4983715;28;20171;-66
2022/06/25 00:12:54;;;;;;;5.93;4.37;;;15.70;99.90;;;;;;4983880;28;20204;-65
2022/06/25 00:15:19;;;;;;;4.13;3.70;;;15.70;99.90;;;;;;4970902;28;21822;-65
2022/06/25 00:17:45;;;;;;;3.70;3.37;;;15.60;99.90;;;;;;4970024;28;20810;-66
2022/06/25 00:20:11;;;;;;;4.30;4.00;;;15.60;99.90;;;;;;4978766;28;20187;-66
2022/06/25 00:22:37;;;;;;;3.10;2.90;;;15.50;99.90;;;;;;4970824;28;20262;-66
2022/06/25 00:25:03;;;;;;;4.87;4.47;;;15.50;99.90;;;;;;4970765;28;20177;-65
2022/06/25 00:27:28;;;;;;;3.57;3.37;;;15.50;99.90;;;;;;4966417;28;20216;-66
2022/06/25 00:29:54;;;;;;;5.27;3.87;;;15.50;99.90;;;;;;4970986;28;20443;-66
2022/06/25 00:32:19;;;;;;;3.73;3.40;;;15.50;99.90;;;;;;4970212;28;20208;-66
2022/06/25 00:34:45;;;;;;;3.07;2.87;;;15.50;99.90;;;;;;4971144;28;20179;-66
2022/06/25 00:37:11;;;;;;;5.20;3.27;;;15.50;99.90;;;;;;4971706;28;20200;-65
2022/06/25 00:39:38;;;;;;;3.80;3.60;;;15.50;99.90;;;;;;4971569;28;20185;-65
2022/06/25 00:42:11;;;;;;;3.83;3.47;;;15.50;99.90;;;;;;4970226;28;20451;-66
2022/06/25 00:44:38;;;;;;;3.67;3.37;;;15.50;99.90;;;;;;4970526;28;20439;-65
2022/06/25 00:47:07;;;;;;;4.73;4.10;;;15.50;99.90;;;;;;4999318;23;20528;-63
2022/06/25 00:49:32;;;;;;;3.40;3.20;;;15.50;99.90;;;;;;4989011;28;20430;-64
2022/06/25 00:52:02;;;;;;;3.97;3.73;;;15.50;99.90;;;;;;5001345;28;20969;-63
2022/06/25 00:54:33;;;;;;;4.07;3.57;;;15.50;99.90;;;;;;4995302;28;20179;-63
2022/06/25 00:57:00;;;;;;;3.90;3.70;;;15.50;99.90;;;;;;4999070;28;20484;-63
2022/06/25 00:59:27;;;;;;;4.63;3.17;;;15.30;99.90;;;;;;4997004;28;20445;-63
2022/06/25 01:01:53;;;;;;;4.40;4.10;;;15.40;99.90;;;;;;4998610;28;20444;-64
2022/06/25 01:04:19;;;;;;;3.90;3.60;;;15.40;99.90;;;;;;5002194;28;20496;-64
2022/06/25 01:06:45;;;;;;;4.23;3.90;;;15.40;99.90;;;;;;4984232;28;20517;-63
2022/06/25 01:09:11;;;;;;;3.70;3.40;;;15.40;99.90;;;;;;4988852;28;20843;-63
2022/06/25 01:11:37;;;;;;;3.67;3.47;;;15.40;99.90;;;;;;4990346;28;20286;-63
2022/06/25 01:14:10;;;;;;;4.67;4.27;;;15.40;99.90;;;;;;4989818;28;20574;-63
2022/06/25 01:16:35;;;;;;;3.93;3.63;;;15.40;99.90;;;;;;4990771;28;20458;-63
2022/06/25 01:19:11;;;;;;;3.60;3.30;;;15.40;99.90;;;;;;4991477;28;20874;-63
2022/06/25 01:21:38;;;;;;;4.40;3.70;;;15.40;99.90;;;;;;4991102;28;20198;-63
2022/06/25 01:24:05;;;;;;;4.07;3.77;;;15.40;99.90;;;;;;4994829;28;20438;-63
2022/06/25 01:26:35;;;;;;;4.63;3.60;;;15.30;99.90;;;;;;4993026;28;20462;-63
2022/06/25 01:29:03;;;;;;;4.40;4.10;;;15.20;99.90;;;;;;4993284;28;20438;-63
2022/06/25 01:31:29;;;;;;;3.93;3.73;;;15.30;99.90;;;;;;4994403;28;20814;-65
2022/06/25 01:33:54;;;;;;;3.77;3.57;;;15.20;99.90;;;;;;4994720;28;20835;-63
2022/06/25 01:36:20;;;;;;;3.90;3.70;;;15.30;99.90;;;;;;4993338;28;20450;-63
2022/06/25 01:38:46;;;;;;;3.70;3.40;;;15.10;99.90;;;;;;4994461;28;20637;-63
2022/06/25 01:41:11;;;;;;;3.50;3.23;;;15.30;99.90;;;;;;4993509;28;20179;-63
2022/06/25 01:43:37;;;;;;;3.23;3.03;;;15.30;99.90;;;;;;4992802;28;20179;-63
2022/06/25 01:46:04;;;;;;;3.30;3.10;;;15.30;99.90;;;;;;4992481;28;20651;-63
2022/06/25 01:48:29;;;;;;;3.90;3.60;;;15.20;99.90;;;;;;4991263;28;20270;-63
2022/06/25 01:50:55;;;;;;;4.33;4.03;;;15.20;99.90;;;;;;4992075;28;20533;-63
2022/06/25 01:53:20;;;;;;;3.37;3.13;;;15.20;99.90;;;;;;4992484;28;20186;-63
2022/06/25 01:55:46;;;;;;;3.70;3.40;;;15.20;99.90;;;;;;4993340;28;20190;-63
2022/06/25 01:58:12;;;;;;;4.20;3.90;;;15.20;99.90;;;;;;4995503;28;20198;-63
2022/06/25 02:00:37;;;;;;;4.60;4.07;;;15.20;99.90;;;;;;4991334;28;20187;-63
2022/06/25 02:03:03;;;;;;;3.13;2.93;;;15.10;99.90;;;;;;4991967;28;20180;-63
2022/06/25 02:08:16;;;;;;;3.53;2.93;;;15.10;99.90;;;;;;4992032;28;20298;-64
2022/06/25 02:10:42;;;;;;;3.37;3.17;;;15.10;99.90;;;;;;4990915;28;20442;-63
2022/06/25 02:13:08;;;;;;;4.00;2.73;;;15.10;99.90;;;;;;4993017;28;20446;-64
2022/06/25 02:15:34;;;;;;;4.97;3.40;;;15.10;99.90;;;;;;4992241;28;20816;-63
2022/06/25 02:18:00;;;;;;;3.80;3.60;;;15.10;99.90;;;;;;4991305;28;20488;-63
2022/06/25 02:20:26;;;;;;;3.03;2.83;;;15.10;99.90;;;;;;4990779;28;20271;-63
2022/06/25 02:22:52;;;;;;;3.43;3.23;;;15.10;99.90;;;;;;4992652;28;20179;-63
2022/06/25 02:25:18;;;;;;;3.60;3.30;;;15.10;99.90;;;;;;4990497;28;20190;-63
2022/06/25 02:27:43;;;;;;;3.30;3.10;;;15.10;99.90;;;;;;4992712;28;21014;-63
2022/06/25 02:30:09;;;;;;;3.90;3.50;;;15.10;99.90;;;;;;4990284;28;20431;-63
2022/06/25 02:32:35;;;;;;;3.50;3.20;;;15.00;99.90;;;;;;4992562;28;20598;-63
2022/06/25 02:35:01;;;;;;;4.43;3.60;;;15.00;99.90;;;;;;4991689;28;20617;-63
2022/06/25 02:37:27;;;;;;;5.20;3.90;;;15.00;99.90;;;;;;4991406;28;20231;-63
2022/06/25 02:39:52;;;;;;;3.60;3.30;;;15.00;99.90;;;;;;4989646;28;20566;-63
2022/06/25 02:42:18;;;;;;;3.60;3.20;;;15.00;99.90;;;;;;4992555;28;20238;-63
2022/06/25 02:44:43;;;;;;;5.00;3.23;;;15.00;99.90;;;;;;4992522;28;20243;-63
2022/06/25 02:47:09;;;;;;;5.27;3.37;;;14.90;99.90;;;;;;4990999;28;20289;-63
2022/06/25 02:49:34;;;;;;;3.10;2.90;;;14.90;99.90;;;;;;4990705;28;20278;-63
2022/06/25 02:52:00;;;;;;;4.73;2.70;;;14.90;99.90;;;;;;4993719;28;20235;-63
2022/06/25 02:54:25;;;;;;;3.40;3.10;;;14.90;99.90;;;;;;5003983;28;20265;-63
2022/06/25 02:59:40;;;;;;;3.50;2.80;;;14.80;99.90;;;;;;4990698;28;20191;-63
2022/06/25 03:02:05;;;;;;;3.70;3.40;;;14.80;99.90;;;;;;4990517;28;20438;-63
2022/06/25 03:04:31;;;;;;;4.13;3.73;;;14.80;99.90;;;;;;4990489;28;20522;-63
2022/06/25 03:06:56;;;;;;;4.27;3.80;;;14.80;99.90;;;;;;4990436;28;20215;-63
2022/06/25 03:09:23;;;;;;;3.87;3.67;;;14.80;99.90;;;;;;4990423;28;20189;-63
2022/06/25 03:11:49;;;;;;;3.87;3.57;;;14.80;99.90;;;;;;4990584;28;20250;-64
2022/06/25 03:14:15;;;;;;;4.23;3.80;;;14.80;99.90;;;;;;4990217;28;20435;-63
2022/06/25 03:16:42;;;;;;;3.93;3.53;;;14.80;99.90;;;;;;4990838;28;21153;-63
2022/06/25 03:19:08;;;;;;;3.60;3.40;;;14.70;99.90;;;;;;4988838;28;20522;-63
2022/06/25 03:21:33;;;;;;;3.20;2.90;;;14.70;99.90;;;;;;4990030;28;20446;-63
2022/06/25 03:23:59;;;;;;;4.00;3.70;;;14.70;99.90;;;;;;4992469;28;20445;-63
2022/06/25 03:26:25;;;;;;;4.80;3.57;;;14.70;99.90;;;;;;4990797;28;20899;-63
2022/06/25 03:28:50;;;;;;;3.47;3.23;;;14.70;99.90;;;;;;4988999;28;20186;-63
2022/06/25 03:31:16;;;;;;;3.93;3.50;;;14.70;99.90;;;;;;4990623;28;20207;-64
2022/06/25 03:33:41;;;;;;;3.83;3.53;;;14.70;99.90;;;;;;4990462;28;21757;-63
2022/06/25 03:36:07;;;;;;;3.17;2.97;;;14.70;99.90;;;;;;4992156;28;20243;-63
2022/06/25 03:38:33;;;;;;;3.30;3.00;;;14.70;99.90;;;;;;4988532;28;20188;-63
2022/06/25 03:43:43;;;;;;;4.43;3.63;;;14.70;99.90;;;;;;4990102;28;20546;-63
2022/06/25 03:46:09;;;;;;;3.60;3.30;;;14.60;99.90;;;;;;4990789;28;20462;-63
2022/06/25 03:48:35;;;;;;;3.17;2.97;;;14.70;99.90;;;;;;4988893;28;20453;-63
2022/06/25 03:51:00;;;;;;;3.43;3.13;;;14.70;99.90;;;;;;4990768;28;20234;-63
2022/06/25 03:53:26;;;;;;;4.77;2.80;;;14.80;99.90;;;;;;4991324;28;20500;-63
2022/06/25 03:55:51;;;;;;;3.50;3.20;;;14.80;99.90;;;;;;4989587;28;20179;-63
2022/06/25 03:58:17;;;;;;;3.50;3.30;;;14.90;99.90;;;;;;4990075;28;20176;-63
2022/06/25 04:00:42;;;;;;;3.33;3.10;;;15.00;99.90;;;;;;4990087;28;20180;-63
2022/06/25 04:03:08;;;;;;;3.37;3.07;;;15.00;99.90;;;;;;4989966;28;20216;-63
2022/06/25 04:05:33;;;;;;;3.07;2.87;;;15.10;99.90;;;;;;4991002;28;20304;-64
2022/06/25 04:07:59;;;;;;;2.90;2.80;;;15.20;99.90;;;;;;4989109;28;20315;-63
2022/06/25 04:10:24;;;;;;;3.63;3.43;;;15.20;99.90;;;;;;4988682;28;20187;-63
2022/06/25 04:12:50;;;;;;;2.93;2.73;;;15.40;99.90;;;;;;4991631;28;20199;-63
2022/06/25 04:15:15;;;;;;;3.80;3.53;;;15.40;99.90;;;;;;4991092;28;20186;-63
2022/06/25 04:17:41;;;;;;;3.93;3.33;;;15.50;99.90;;;;;;4987956;28;20201;-64
2022/06/25 04:20:07;;;;;;;3.30;3.10;;;15.60;99.90;;;;;;4987964;28;20691;-63
2022/06/25 04:22:32;;;;;;;4.77;2.57;;;15.60;99.90;;;;;;4989400;28;20195;-64
2022/06/25 04:24:58;;;;;;;4.03;3.73;;;15.70;99.90;;;;;;4990714;28;20188;-63
2022/06/25 04:30:08;;;;;;;3.63;3.33;;;15.90;99.90;;;;;;4987995;28;20311;-63
2022/06/25 04:32:34;;;;;;;3.00;2.80;;;15.90;99.90;;;;;;4990634;28;20537;-64
2022/06/25 04:34:59;;;;;;;2.83;2.63;;;16.00;99.90;;;;;;4987676;28;20910;-64
2022/06/25 04:37:25;;;;;;;6.40;3.37;;;16.10;99.90;;;;;;4990529;28;20196;-64
2022/06/25 04:39:50;;;;;;;2.70;2.50;;;16.30;99.90;;;;;;4987596;28;20190;-63
2022/06/25 04:42:16;;;;;;;3.17;2.60;;;16.50;99.90;;;;;;4991244;28;20258;-64
2022/06/25 04:44:42;;;;;;;3.37;3.07;;;16.70;99.90;;;;;;4988888;28;20262;-64
2022/06/25 04:47:09;;;;;;;2.50;2.40;;;16.90;99.90;;;;;;4988212;28;20674;-63
2022/06/25 04:49:34;;;;;;;2.57;2.23;;;16.90;99.90;;;;;;4988194;28;20179;-64
2022/06/25 04:52:00;;;;;;;2.73;2.53;;;17.10;99.90;;;;;;4994034;28;20557;-64
2022/06/25 04:54:25;;;;;;;3.40;3.13;;;17.30;99.90;;;;;;4994498;28;20175;-64
2022/06/25 04:56:51;;;;;;;3.00;2.80;;;17.50;99.90;;;;;;4993376;28;20206;-64
2022/06/25 04:59:18;;;;;;;2.90;2.70;;;17.60;99.90;;;;;;4991577;28;20171;-64
2022/06/25 05:01:44;;;;;;;3.10;2.47;;;17.70;99.90;;;;;;4993177;28;20194;-64
2022/06/25 05:04:10;;;;;;;2.37;2.27;;;17.80;99.90;;;;;;4993459;28;20442;-64
2022/06/25 05:06:35;;;;;;;3.23;2.80;;;17.90;99.90;;;;;;4991267;28;20458;-64
2022/06/25 05:09:01;;;;;;;2.50;2.23;;;18.10;99.90;;;;;;4993017;28;20183;-64
2022/06/25 05:11:27;;;;;;;2.30;2.20;;;18.20;99.90;;;;;;4992993;28;20826;-64
2022/06/25 05:13:52;;;;;;;2.87;2.67;;;18.30;99.90;;;;;;4994118;28;20918;-64
2022/06/25 05:16:18;;;;;;;2.90;2.43;;;18.40;99.90;;;;;;4993212;28;20681;-64
2022/06/25 05:18:44;;;;;;;2.33;2.13;;;18.50;99.90;;;;;;4993432;28;20184;-64
2022/06/25 05:21:10;;;;;;;4.37;1.90;;;18.60;99.90;;;;;;4993038;28;20190;-64
2022/06/25 05:23:35;;;;;;;7.10;2.70;;;18.70;99.90;;;;;;4992154;28;20438;-64
2022/06/25 05:26:02;;;;;;;2.30;2.20;;;18.80;99.90;;;;;;4992880;28;20204;-64
2022/06/25 05:28:27;;;;;;;2.30;2.20;;;18.90;99.90;;;;;;4994249;28;20587;-64
2022/06/25 05:30:53;;;;;;;3.03;2.83;;;18.90;99.90;;;;;;4991188;28;20530;-64
2022/06/25 05:33:19;;;;;;;1.80;1.70;;;18.90;99.90;;;;;;4991962;28;20180;-64
2022/06/25 05:35:44;;;;;;;2.00;1.90;;;18.90;99.90;;;;;;4993824;28;20188;-64
2022/06/25 05:38:10;;;;;;;2.90;2.00;;;18.90;99.90;;;;;;4994977;28;20187;-64
2022/06/25 05:40:36;;;;;;;2.20;2.00;;;18.80;99.90;;;;;;4993789;28;20172;-64
2022/06/25 05:43:02;;;;;;;2.30;2.10;;;18.60;99.90;;;;;;4992472;28;20190;-64
2022/06/25 05:45:28;;;;;;;3.13;2.43;;;18.60;99.90;;;;;;4992908;28;20447;-64
2022/06/25 05:47:53;;;;;;;3.37;2.63;;;18.60;99.90;;;;;;4993868;28;20477;-64
2022/06/25 05:50:19;;;;;;;2.43;1.87;;;18.70;99.90;;;;;;4991646;28;20211;-64
2022/06/25 05:52:44;;;;;;;3.13;2.77;;;18.80;99.90;;;;;;4992484;28;20212;-64
2022/06/25 05:55:11;;;;;;;2.10;2.00;;;18.80;99.90;;;;;;4991440;28;20230;-64
2022/06/25 05:57:37;;;;;;;2.43;1.90;;;18.80;99.90;;;;;;4991522;28;20275;-64
2022/06/25 06:00:04;;;;;;;1.80;1.70;;;18.90;99.90;;;;;;4992422;28;21000;-64
2022/06/25 06:02:29;;;;;;;2.57;2.37;;;19.10;99.90;;;;;;4991971;28;20191;-64
2022/06/25 06:04:55;;;;;;;3.20;2.37;;;19.40;99.90;;;;;;4992212;28;20442;-64
2022/06/25 06:07:21;;;;;;;7.17;2.50;;;19.30;99.90;;;;;;4990585;28;20298;-65
2022/06/25 06:09:47;;;;;;;2.27;2.17;;;19.20;99.90;;;;;;4989778;28;20641;-65
2022/06/25 06:12:13;;;;;;;2.53;2.33;;;19.30;99.90;;;;;;4992994;28;20578;-64
2022/06/25 06:14:39;;;;;;;2.60;2.40;;;19.20;99.90;;;;;;4990271;28;20553;-64
2022/06/25 06:17:04;;;;;;;2.67;2.47;;;19.30;99.90;;;;;;4991960;28;20234;-64
2022/06/25 06:19:30;;;;;;;1.63;1.53;;;19.20;99.90;;;;;;4990709;28;20641;-64
2022/06/25 06:21:55;;;;;;;2.40;2.30;;;19.30;99.90;;;;;;4989804;28;20192;-64
2022/06/25 06:24:21;;;;;;;2.90;2.43;;;19.60;99.90;;;;;;4992936;28;20183;-64
2022/06/25 06:26:46;;;;;;;1.93;1.83;;;19.70;99.90;;;;;;4989316;28;20203;-64
2022/06/25 06:29:12;;;;;;;4.33;2.10;;;19.60;99.90;;;;;;4991579;28;20198;-64
2022/06/25 06:31:37;;;;;;;3.10;1.97;;;19.60;99.90;;;;;;5001166;28;20269;-64
2022/06/25 06:34:03;;;;;;;1.90;1.80;;;19.70;99.90;;;;;;5002845;28;20195;-64
2022/06/25 06:36:28;;;;;;;2.67;2.47;;;19.90;99.90;;;;;;4997757;28;20196;-64
2022/06/25 06:38:54;;;;;;;1.97;1.87;;;19.90;99.90;;;;;;5007681;28;20182;-64
2022/06/25 06:41:20;;;;;;;2.67;2.57;;;19.90;99.90;;;;;;5002912;28;20540;-64
2022/06/25 06:43:45;;;;;;;2.57;2.10;;;20.10;99.90;;;;;;5005742;28;20173;-64
2022/06/25 06:46:13;;;;;;;2.07;1.97;;;20.20;99.90;;;;;;5010365;28;20198;-64
2022/06/25 06:48:39;;;;;;;2.33;2.07;;;20.40;99.90;;;;;;4993582;28;20671;-64
2022/06/25 06:51:05;;;;;;;2.20;2.10;;;20.60;99.90;;;;;;4995024;28;20505;-64
2022/06/25 06:53:31;;;;;;;4.73;2.50;;;20.80;99.90;;;;;;4994193;28;20435;-64
2022/06/25 06:55:56;;;;;;;2.40;1.80;;;21.10;99.90;;;;;;4995352;28;20262;-64
2022/06/25 06:58:22;;;;;;;1.83;1.73;;;21.50;99.90;;;;;;5001825;28;20198;-64
2022/06/25 07:00:47;;;;;;;2.57;1.97;;;22.00;99.90;;;;;;5010296;28;20238;-65
2022/06/25 07:03:13;;;;;;;2.63;2.43;;;22.40;99.90;;;;;;4986618;28;20631;-64
2022/06/25 07:05:38;;;;;;;3.00;2.00;;;22.40;99.90;;;;;;4998730;28;20179;-64
2022/06/25 07:08:04;;;;;;;2.20;1.93;;;22.50;99.90;;;;;;5013305;28;20183;-64
2022/06/25 07:10:30;;;;;;;2.50;2.07;;;22.40;99.90;;;;;;4994782;28;20229;-64
2022/06/25 07:12:55;;;;;;;2.40;1.60;;;22.40;99.90;;;;;;4999920;28;20293;-64
2022/06/25 07:15:21;;;;;;;2.83;2.20;;;22.20;99.90;;;;;;4995128;28;20187;-64
2022/06/25 07:17:47;;;;;;;2.20;2.10;;;21.90;99.90;;;;;;5005673;28;20205;-65
2022/06/25 07:20:12;;;;;;;1.90;1.80;;;22.00;99.90;;;;;;4992817;28;20661;-64
2022/06/25 07:22:38;;;;;;;3.13;2.23;;;21.80;99.90;;;;;;4990329;28;20185;-64
2022/06/25 07:25:05;;;;;;;2.00;1.90;;;22.20;99.90;;;;;;4993274;28;20667;-64
2022/06/25 07:27:30;;;;;;;3.70;2.60;;;22.40;99.90;;;;;;4990978;28;20199;-64
2022/06/25 07:29:56;;;;;;;2.70;2.50;;;22.60;99.90;;;;;;4987678;28;20469;-64
2022/06/25 07:32:21;;;;;;;2.87;2.57;;;22.80;99.90;;;;;;4994750;28;20222;-64
2022/06/25 07:34:47;;;;;;;2.20;2.10;;;23.00;99.90;;;;;;4999074;28;20221;-64
2022/06/25 07:37:13;;;;;;;3.00;2.53;;;22.90;99.90;;;;;;4997866;28;20250;-64
2022/06/25 07:39:38;;;;;;;3.00;2.50;;;22.90;99.90;;;;;;4995544;28;20183;-64
2022/06/25 07:42:04;;;;;;;2.00;1.90;;;23.20;99.90;;;;;;4993883;28;20191;-64
2022/06/25 07:44:30;;;;;;;2.83;2.00;;;23.60;99.90;;;;;;4989328;28;20552;-64
2022/06/25 07:46:55;;;;;;;2.43;2.30;;;24.00;99.90;;;;;;4985648;28;20219;-64
2022/06/25 07:49:21;;;;;;;2.43;2.33;;;24.10;99.90;;;;;;4997900;28;20171;-65
2022/06/25 07:51:56;;;;;;;2.57;1.90;;;24.40;99.90;;;;;;4996083;28;20205;-64
2022/06/25 07:54:25;;;;;;;2.37;2.27;;;24.50;99.90;;;;;;5000214;28;20178;-64
2022/06/25 07:56:51;;;;;;;2.53;2.37;;;24.00;99.90;;;;;;4993669;28;20445;-65
2022/06/25 07:59:17;;;;;;;2.50;2.40;;;23.80;99.90;;;;;;4998303;28;20527;-64
2022/06/25 08:01:42;;;;;;;2.60;2.40;;;24.20;99.90;;;;;;4988429;28;20233;-64
2022/06/25 08:04:08;;;;;;;2.10;1.97;;;24.20;99.90;;;;;;4988860;28;20198;-64
2022/06/25 08:06:38;;;;;;;3.63;2.30;;;24.10;99.90;;;;;;4987442;28;20291;-65
2022/06/25 08:09:05;;;;;;;2.97;2.77;;;23.90;99.90;;;;;;4995740;28;20191;-64
2022/06/25 08:11:31;;;;;;;2.67;2.47;;;23.80;99.90;;;;;;4997350;28;20462;-64
2022/06/25 08:13:57;;;;;;;2.47;2.20;;;23.70;99.90;;;;;;4998993;28;20465;-65
2022/06/25 08:16:25;;;;;;;2.50;2.30;;;23.60;99.90;;;;;;4989377;28;20486;-65
2022/06/25 08:18:51;;;;;;;5.03;2.90;;;24.20;99.90;;;;;;4991191;28;20438;-65
2022/06/25 08:21:16;;;;;;;5.40;2.07;;;23.90;99.90;;;;;;5006994;28;20433;-64
2022/06/25 08:23:42;;;;;;;2.73;2.50;;;23.40;99.90;;;;;;5002460;28;20457;-64
2022/06/25 08:26:07;;;;;;;4.30;4.00;;;22.90;99.90;;;;;;4995384;28;20264;-64
2022/06/25 08:28:33;;;;;;;3.10;2.90;;;22.90;99.90;;;;;;4995883;28;20184;-64
2022/06/25 08:30:58;;;;;;;2.77;2.57;;;23.40;99.90;;;;;;5004505;28;20651;-65
2022/06/25 08:33:24;;;;;;;2.80;2.60;;;23.80;99.90;;;;;;4993228;28;20210;-64
2022/06/25 08:35:50;;;;;;;2.50;2.40;;;23.80;99.90;;;;;;4999404;28;20183;-64
2022/06/25 08:38:16;;;;;;;2.40;2.20;;;23.80;99.90;;;;;;5005967;28;20181;-65
2022/06/25 08:40:42;;;;;;;4.23;3.07;;;24.30;99.90;;;;;;4986803;28;20445;-65
2022/06/25 08:43:08;;;;;;;4.53;2.03;;;25.00;99.90;;;;;;4984605;28;20960;-64
2022/06/25 08:45:33;;;;;;;2.30;2.20;;;25.80;99.90;;;;;;4988887;28;20672;-64
2022/06/25 08:48:00;;;;;;;2.20;2.10;;;25.90;99.90;;;;;;4990087;28;20273;-64
2022/06/25 08:50:26;;;;;;;3.63;2.07;;;25.70;99.90;;;;;;4981669;28;20188;-65
2022/06/25 08:52:54;;;;;;;2.30;2.10;;;25.50;99.90;;;;;;4987951;28;20481;-64
2022/06/25 08:55:34;;;;;;;3.17;2.97;;;25.20;99.90;;;;;;5002655;28;20442;-64
2022/06/25 08:58:01;;;;;;;1.83;1.73;;;25.20;99.90;;;;;;4987165;28;20461;-64
2022/06/25 09:00:27;;;;;;;2.50;2.40;;;25.50;99.90;;;;;;4995377;28;20465;-65
2022/06/25 09:02:53;;;;;;;2.40;2.30;;;26.00;99.90;;;;;;5003915;28;20434;-65
2022/06/25 09:05:29;;;;;;;4.23;2.60;;;26.40;99.90;;;;;;5002553;28;20446;-65
2022/06/25 09:08:01;;;;;;;2.60;2.40;;;26.00;99.90;;;;;;4995998;28;20457;-65
2022/06/25 09:10:28;;;;;;;2.63;2.43;;;25.00;99.90;;;;;;4998634;28;20525;-64
2022/06/25 09:12:56;;;;;;;2.83;2.63;;;24.30;99.90;;;;;;5004272;28;20471;-64
2022/06/25 09:15:25;;;;;;;2.90;2.60;;;24.00;99.90;;;;;;5005650;28;20449;-65
2022/06/25 09:17:52;;;;;;;2.57;2.37;;;24.10;99.90;;;;;;4994219;28;20458;-65
2022/06/25 09:20:19;;;;;;;4.07;2.13;;;24.40;99.90;;;;;;4997393;28;20534;-65
2022/06/25 09:23:03;;;;;;;2.97;2.77;;;24.70;99.90;;;;;;4990114;28;20439;-65
2022/06/25 09:25:30;;;;;;;2.20;1.93;;;25.50;99.90;;;;;;4985596;28;20505;-65
2022/06/25 09:27:59;;;;;;;2.60;2.40;;;25.80;99.90;;;;;;4997119;28;20469;-65
2022/06/25 09:30:26;;;;;;;2.50;1.97;;;26.00;99.90;;;;;;5001147;28;20952;-65
2022/06/25 09:32:56;;;;;;;2.30;2.20;;;26.60;99.90;;;;;;4993639;28;20466;-65
2022/06/25 09:35:41;;;;;;;4.00;3.13;;;26.50;99.50;;;;;;4990348;28;20438;-64
2022/06/25 09:38:06;;;;;;;2.83;2.63;;;26.00;99.80;;;;;;4995584;28;20935;-65
2022/06/25 09:40:33;;;;;;;2.00;1.90;;;25.80;99.80;;;;;;4992615;28;20430;-65
2022/06/25 09:43:09;;;;;;;2.73;2.53;;;26.20;99.20;;;;;;4992483;28;20198;-67
2022/06/25 09:45:36;;;;;;;2.57;2.37;;;26.70;98.80;;;;;;4993485;28;20442;-64
2022/06/25 09:48:02;;;;;;;3.20;2.20;;;27.10;97.20;;;;;;4997276;28;20474;-64
2022/06/25 09:50:28;;;;;;;3.10;2.70;;;27.40;98.00;;;;;;4993060;28;20477;-65
2022/06/25 09:52:55;;;;;;;4.37;2.30;;;27.70;97.40;;;;;;4994301;28;20560;-64
2022/06/25 09:55:25;;;;;;;2.73;2.63;;;27.80;96.60;;;;;;4993205;28;20653;-64
2022/06/25 09:57:52;;;;;;;4.33;3.93;;;27.30;96.60;;;;;;4994464;28;20801;-65
2022/06/25 10:00:19;;;;;;;2.77;2.50;;;28.10;96.80;;;;;;4994491;28;20446;-64
2022/06/25 10:02:47;;;;;;;3.67;2.47;;;29.20;94.70;;;;;;4992968;28;20891;-65
2022/06/25 10:05:15;;;;;;;2.80;2.60;;;28.80;93.40;;;;;;4991666;28;20448;-65
2022/06/25 10:08:01;;;;;;;2.60;2.00;;;29.60;93.60;;;;;;4994154;28;20486;-65
2022/06/25 10:10:31;;;;;;;3.50;2.27;;;29.50;92.10;;;;;;4998511;28;20446;-64
2022/06/25 10:12:57;;;;;;;2.73;2.53;;;29.50;90.90;;;;;;5003403;28;20501;-65
2022/06/25 10:15:26;;;;;;;2.73;2.37;;;28.90;91.50;;;;;;4998727;28;20436;-65
2022/06/25 10:17:52;;;;;;;2.23;1.90;;;29.00;90.50;;;;;;4988975;28;20467;-65
2022/06/25 10:20:18;;;;;;;3.30;2.23;;;29.40;90.00;;;;;;4989686;28;20438;-65
2022/06/25 10:22:47;;;;;;;2.13;1.97;;;29.90;88.10;;;;;;4990742;28;20816;-65
2022/06/25 10:25:15;;;;;;;2.80;2.60;;;30.80;85.80;;;;;;4988954;28;20534;-67
2022/06/25 10:27:43;;;;;;;3.40;3.10;;;31.90;82.10;;;;;;4991935;28;20897;-66
2022/06/25 10:30:10;;;;;;;2.60;2.40;;;32.60;78.90;;;;;;4993413;28;20451;-65
2022/06/25 10:32:47;;;;;;;2.37;2.10;;;32.80;74.90;;;;;;4999532;28;20461;-65
2022/06/25 10:35:35;;;;;;;2.57;2.37;;;31.90;74.00;;;;;;4991741;28;20982;-65
2022/06/25 10:38:07;;;;;;;2.30;2.20;;;31.60;74.40;;;;;;4992728;28;20427;-65
2022/06/25 10:40:46;;;;;;;2.40;2.20;;;33.10;70.80;;;;;;5004614;28;20430;-65
2022/06/25 10:43:47;;;;;;;2.57;2.37;;;34.60;64.90;;;;;;5007592;28;20431;-65
2022/06/25 10:46:21;;;;;;;2.80;2.60;;;35.10;62.00;;;;;;5002435;28;20853;-65
2022/06/25 10:48:57;;;;;;;3.17;2.87;;;36.10;59.30;;;;;;5004086;28;20434;-65
2022/06/25 10:51:39;;;;;;;2.47;2.27;;;36.40;56.50;;;;;;4999615;28;20462;-64
2022/06/25 10:54:06;;;;;;;1.93;1.73;;;36.30;55.40;;;;;;4998965;28;20434;-65
2022/06/25 10:56:50;;;;;;;2.20;2.00;;;35.40;55.00;;;;;;4994390;28;20465;-65
2022/06/25 10:59:38;;;;;;;1.97;1.87;;;35.70;55.20;;;;;;4994396;28;20450;-65
2022/06/25 11:02:04;;;;;;;2.40;2.30;;;35.80;53.50;;;;;;4999937;28;20450;-65
2022/06/25 11:04:31;;;;;;;2.50;2.40;;;35.10;53.00;;;;;;4994930;28;20450;-65
2022/06/25 11:07:14;;;;;;;2.50;1.87;;;35.20;53.60;;;;;;5007915;28;20809;-65
2022/06/25 11:09:50;;;;;;;2.60;2.30;;;35.70;53.20;;;;;;4990467;28;20537;-66
2022/06/25 11:12:17;;;;;;;2.77;2.60;;;35.30;51.60;;;;;;4988707;28;20454;-65
2022/06/25 11:14:43;;;;;;;2.37;2.27;;;35.70;50.40;;;;;;4987656;28;20442;-64
2022/06/25 11:17:10;;;;;;;1.90;1.80;;;34.60;52.50;;;;;;4989648;28;20481;-65
2022/06/25 11:19:37;;;;;;;2.83;2.57;;;33.10;53.30;;;;;;4996646;28;20172;-65
2022/06/25 11:22:04;;;;;;;1.93;1.83;;;34.10;53.40;;;;;;5001494;28;20438;-65
2022/06/25 11:24:30;;;;;;;2.40;2.20;;;36.60;51.50;;;;;;5000518;28;20469;-65
2022/06/25 11:29:51;;;;;;;2.30;2.10;;;36.10;50.30;;;;;;4993034;28;21002;-65
2022/06/25 11:32:28;;;;;;;2.80;2.30;;;35.90;50.90;;;;;;4993848;28;20461;-65
2022/06/25 11:35:00;;;;;;;2.53;2.33;;;35.00;51.20;;;;;;5005684;28;20437;-65
2022/06/25 11:37:29;;;;;;;1.73;1.63;;;36.80;50.40;;;;;;5012906;28;20468;-65
2022/06/25 11:39:55;;;;;;;2.07;1.97;;;35.90;49.10;;;;;;4991835;28;20438;-65
2022/06/25 11:42:20;;;;;;;1.83;1.73;;;36.80;49.30;;;;;;5000008;28;20497;-66
2022/06/25 11:44:49;;;;;;;1.90;1.80;;;36.20;48.50;;;;;;5001349;28;20187;-66
2022/06/25 11:47:19;;;;;;;2.13;1.90;;;35.30;48.80;;;;;;4996070;28;20226;-65
2022/06/25 11:49:45;;;;;;;2.27;2.07;;;34.60;49.70;;;;;;5002555;28;20450;-65
2022/06/25 11:52:12;;;;;;;2.53;1.60;;;34.70;49.20;;;;;;4992813;28;20477;-65
2022/06/25 11:54:40;;;;;;;1.83;1.73;;;37.80;47.00;;;;;;4993903;28;20450;-66
2022/06/25 11:57:15;;;;;;;2.40;2.03;;;39.90;44.80;;;;;;4993477;28;20474;-66
2022/06/25 11:59:40;;;;;;;2.33;1.93;;;40.50;44.10;;;;;;4997913;28;20481;-65
2022/06/25 12:02:07;;;;;;;2.47;2.27;;;41.40;42.80;;;;;;5002555;28;20467;-65
2022/06/25 12:04:51;;;;;;;2.47;2.37;;;41.50;41.50;;;;;;5003521;28;20576;-65
2022/06/25 12:07:22;;;;;;;3.47;1.80;;;41.00;40.70;;;;;;4990184;28;20501;-67
2022/06/25 12:09:49;;;;;;;1.80;1.70;;;38.70;42.60;;;;;;4990357;28;20504;-66
2022/06/25 12:12:17;;;;;;;2.30;2.20;;;40.30;41.90;;;;;;4990725;28;20466;-66
2022/06/25 12:14:42;;;;;;;3.43;2.00;;;39.80;42.10;;;;;;4994148;28;20983;-67
2022/06/25 12:17:10;;;;;;;2.17;2.00;;;40.20;40.90;;;;;;4993735;28;20502;-67
2022/06/25 12:19:52;;;;;;;2.30;2.20;;;38.80;41.90;;;;;;4991984;28;20629;-67
2022/06/25 12:22:26;;;;;;;2.37;2.27;;;39.50;41.80;;;;;;4987271;28;21082;-67
2022/06/25 12:24:56;;;;;;;2.00;1.80;;;39.30;40.40;;;;;;4995240;28;20569;-68
2022/06/25 12:27:22;;;;;;;1.73;1.63;;;40.30;40.30;;;;;;5002204;28;20838;-68
2022/06/25 12:29:50;;;;;;;2.73;1.70;;;38.30;41.30;;;;;;5001469;28;20448;-66
2022/06/25 12:32:16;;;;;;;2.13;2.03;;;39.40;41.50;;;;;;4990510;28;20472;-66
2022/06/25 12:34:50;;;;;;;2.97;2.67;;;38.90;39.40;;;;;;5001011;28;20437;-65
2022/06/25 12:37:28;;;;;;;2.23;2.03;;;38.60;40.30;;;;;;4990186;28;20282;-65
2022/06/25 12:39:57;;;;;;;2.73;1.63;;;38.60;40.20;;;;;;4999042;28;20682;-66
2022/06/25 12:42:23;;;;;;;2.00;1.50;;;40.20;38.80;;;;;;4993910;28;20481;-65
2022/06/25 12:44:49;;;;;;;1.87;1.77;;;42.10;38.30;;;;;;4987665;28;20447;-66
2022/06/25 12:47:17;;;;;;;2.97;2.63;;;42.30;36.90;;;;;;4986197;28;20568;-67
2022/06/25 12:49:44;;;;;;;2.10;1.90;;;41.80;38.10;;;;;;4986307;28;20250;-66
2022/06/25 12:52:10;;;;;;;2.00;1.90;;;41.60;37.40;;;;;;4984134;28;20952;-66
2022/06/25 12:54:45;;;;;;;1.70;1.60;;;41.70;37.20;;;;;;4992914;28;20496;-65
2022/06/25 12:57:27;;;;;;;2.10;2.00;;;42.50;36.20;;;;;;4990701;28;20807;-66
2022/06/25 12:59:53;;;;;;;1.97;1.87;;;42.70;36.10;;;;;;4984677;28;20799;-64
2022/06/25 13:02:20;;;;;;;1.60;1.50;;;42.90;35.50;;;;;;4991786;28;20928;-64